sensor_id;sensor_type;location;lat;lon;timestamp;pressure;altitude;pressure_sealevel;temperature;humidity
21401;BME280;18038;50.166;18.908;2023-03-21T00:00:22;97960.81;;;7.22;78.53
21401;BME280;18038;50.166;18.908;2023-03-21T00:03:30;97959.28;;;7.28;78.36
21401;BME280;18038;50.166;18.908;2023-03-21T00:06:38;97965.47;;;7.20;78.71
21401;BME280;18038;50.166;18.908;2023-03-21T00:09:47;97961.50;;;7.24;78.24
21401;BME280;18038;50.166;18.908;2023-03-21T00:13:06;97969.81;;;7.21;78.82
21401;BME280;18038;50.166;18.908;2023-03-21T00:16:17;97962.16;;;7.26;78.40
21401;BME280;18038;50.166;18.908;2023-03-21T00:19:30;97964.59;;;7.28;78.27
21401;BME280;18038;50.166;18.908;2023-03-21T00:22:41;97959.50;;;7.26;78.86
21401;BME280;18038;50.166;18.908;2023-03-21T00:25:50;97956.53;;;7.21;79.73
21401;BME280;18038;50.166;18.908;2023-03-21T00:29:15;97960.81;;;7.22;79.59
21401;BME280;18038;50.166;18.908;2023-03-21T00:32:21;97948.06;;;7.17;80.04
21401;BME280;18038;50.166;18.908;2023-03-21T00:35:28;97952.03;;;7.21;80.81
21401;BME280;18038;50.166;18.908;2023-03-21T00:38:57;97959.19;;;7.13;81.02
21401;BME280;18038;50.166;18.908;2023-03-21T00:42:15;97956.78;;;7.03;81.73
21401;BME280;18038;50.166;18.908;2023-03-21T00:45:21;97962.59;;;6.98;82.40
21401;BME280;18038;50.166;18.908;2023-03-21T00:48:29;97963.97;;;6.94;83.00
21401;BME280;18038;50.166;18.908;2023-03-21T00:51:35;97959.56;;;6.78;84.03
21401;BME280;18038;50.166;18.908;2023-03-21T00:54:41;97969.81;;;6.82;83.85
21401;BME280;18038;50.166;18.908;2023-03-21T00:57:54;97961.44;;;6.53;84.60
21401;BME280;18038;50.166;18.908;2023-03-21T01:01:05;97966.94;;;6.44;85.50
21401;BME280;18038;50.166;18.908;2023-03-21T01:04:15;97968.09;;;6.41;85.94
21401;BME280;18038;50.166;18.908;2023-03-21T01:07:23;97963.13;;;6.46;86.39
21401;BME280;18038;50.166;18.908;2023-03-21T01:10:29;97966.63;;;6.39;86.47
21401;BME280;18038;50.166;18.908;2023-03-21T01:13:39;97961.00;;;6.42;86.12
21401;BME280;18038;50.166;18.908;2023-03-21T01:16:57;97959.16;;;6.42;86.29
21401;BME280;18038;50.166;18.908;2023-03-21T01:20:09;97956.34;;;6.35;85.90
21401;BME280;18038;50.166;18.908;2023-03-21T01:23:16;97963.66;;;6.42;86.04
21401;BME280;18038;50.166;18.908;2023-03-21T01:26:23;97956.53;;;6.42;85.42
21401;BME280;18038;50.166;18.908;2023-03-21T01:29:32;97957.81;;;6.46;85.67
21401;BME280;18038;50.166;18.908;2023-03-21T01:32:40;97945.06;;;6.50;85.03
21401;BME280;18038;50.166;18.908;2023-03-21T01:35:50;97952.31;;;6.56;85.64
21401;BME280;18038;50.166;18.908;2023-03-21T01:39:14;97951.81;;;6.61;84.33
21401;BME280;18038;50.166;18.908;2023-03-21T01:42:23;97939.53;;;6.60;84.07
21401;BME280;18038;50.166;18.908;2023-03-21T01:50:08;97945.19;;;6.56;84.69
21401;BME280;18038;50.166;18.908;2023-03-21T01:53:30;97939.06;;;6.56;84.78
21401;BME280;18038;50.166;18.908;2023-03-21T01:56:43;97944.53;;;6.63;84.69
21401;BME280;18038;50.166;18.908;2023-03-21T01:59:53;97939.69;;;6.66;83.90
21401;BME280;18038;50.166;18.908;2023-03-21T02:03:29;97935.56;;;6.64;84.20
21401;BME280;18038;50.166;18.908;2023-03-21T02:07:07;97935.56;;;6.64;83.71
21401;BME280;18038;50.166;18.908;2023-03-21T02:10:26;97929.41;;;6.63;83.83
21401;BME280;18038;50.166;18.908;2023-03-21T02:13:38;97930.97;;;6.49;83.52
21401;BME280;18038;50.166;18.908;2023-03-21T02:17:03;97926.00;;;6.38;84.49
21401;BME280;18038;50.166;18.908;2023-03-21T02:20:43;97930.16;;;6.41;83.92
21401;BME280;18038;50.166;18.908;2023-03-21T02:28:39;97923.34;;;6.38;83.64
21401;BME280;18038;50.166;18.908;2023-03-21T02:32:03;97937.59;;;6.45;84.36
21401;BME280;18038;50.166;18.908;2023-03-21T02:35:53;97931.94;;;6.48;83.60
21401;BME280;18038;50.166;18.908;2023-03-21T02:39:27;97934.25;;;6.51;83.24
21401;BME280;18038;50.166;18.908;2023-03-21T02:42:53;97932.63;;;6.42;83.13
21401;BME280;18038;50.166;18.908;2023-03-21T02:46:25;97939.59;;;6.43;83.10
21401;BME280;18038;50.166;18.908;2023-03-21T02:49:54;97926.66;;;6.40;83.30
21401;BME280;18038;50.166;18.908;2023-03-21T02:53:26;97931.16;;;6.40;83.03
21401;BME280;18038;50.166;18.908;2023-03-21T02:56:41;97940.44;;;6.35;82.81
21401;BME280;18038;50.166;18.908;2023-03-21T02:59:51;97925.72;;;6.25;82.90
21401;BME280;18038;50.166;18.908;2023-03-21T03:03:21;97926.41;;;6.19;83.53
21401;BME280;18038;50.166;18.908;2023-03-21T03:07:06;97933.69;;;6.17;83.31
21401;BME280;18038;50.166;18.908;2023-03-21T03:10:31;97928.72;;;6.13;83.52
21401;BME280;18038;50.166;18.908;2023-03-21T03:14:06;97926.41;;;6.10;83.81
21401;BME280;18038;50.166;18.908;2023-03-21T03:17:51;97935.19;;;6.11;83.39
21401;BME280;18038;50.166;18.908;2023-03-21T03:21:17;97930.91;;;6.02;84.19
21401;BME280;18038;50.166;18.908;2023-03-21T03:24:32;97915.66;;;5.96;84.28
21401;BME280;18038;50.166;18.908;2023-03-21T03:27:50;97930.75;;;5.95;84.32
21401;BME280;18038;50.166;18.908;2023-03-21T03:31:04;97926.78;;;5.99;84.38
21401;BME280;18038;50.166;18.908;2023-03-21T03:34:27;97932.41;;;5.88;84.85
21401;BME280;18038;50.166;18.908;2023-03-21T03:37:46;97922.63;;;5.80;85.19
21401;BME280;18038;50.166;18.908;2023-03-21T03:41:03;97918.81;;;5.75;85.82
21401;BME280;18038;50.166;18.908;2023-03-21T03:44:24;97922.31;;;5.67;86.06
21401;BME280;18038;50.166;18.908;2023-03-21T03:47:43;97920.47;;;5.59;86.41
21401;BME280;18038;50.166;18.908;2023-03-21T03:51:06;97930.78;;;5.62;86.97
21401;BME280;18038;50.166;18.908;2023-03-21T03:54:44;97920.81;;;5.64;86.63
21401;BME280;18038;50.166;18.908;2023-03-21T03:57:54;97922.50;;;5.65;86.38
21401;BME280;18038;50.166;18.908;2023-03-21T04:01:01;97924.13;;;5.58;86.88
21401;BME280;18038;50.166;18.908;2023-03-21T04:04:09;97926.97;;;5.65;86.95
21401;BME280;18038;50.166;18.908;2023-03-21T04:07:20;97924.81;;;5.68;86.96
21401;BME280;18038;50.166;18.908;2023-03-21T04:10:28;97930.25;;;5.67;86.55
21401;BME280;18038;50.166;18.908;2023-03-21T04:13:38;97930.94;;;5.61;86.65
21401;BME280;18038;50.166;18.908;2023-03-21T04:16:47;97932.09;;;5.58;87.08
21401;BME280;18038;50.166;18.908;2023-03-21T04:19:57;97922.59;;;5.47;87.44
21401;BME280;18038;50.166;18.908;2023-03-21T04:23:14;97917.97;;;5.41;87.64
21401;BME280;18038;50.166;18.908;2023-03-21T04:26:26;97931.72;;;5.45;87.73
21401;BME280;18038;50.166;18.908;2023-03-21T04:29:54;97928.72;;;5.32;87.99
21401;BME280;18038;50.166;18.908;2023-03-21T04:33:20;97919.63;;;5.42;87.95
21401;BME280;18038;50.166;18.908;2023-03-21T04:37:02;97918.78;;;5.34;88.24
21401;BME280;18038;50.166;18.908;2023-03-21T04:40:16;97926.25;;;5.46;88.18
21401;BME280;18038;50.166;18.908;2023-03-21T04:43:23;97921.78;;;5.47;87.56
21401;BME280;18038;50.166;18.908;2023-03-21T04:46:38;97908.88;;;5.44;87.53
21401;BME280;18038;50.166;18.908;2023-03-21T04:49:47;97915.16;;;5.43;87.69
21401;BME280;18038;50.166;18.908;2023-03-21T04:52:59;97921.34;;;5.52;87.21
21401;BME280;18038;50.166;18.908;2023-03-21T04:56:05;97917.00;;;5.51;86.76
21401;BME280;18038;50.166;18.908;2023-03-21T04:59:14;97925.13;;;5.49;86.88
21401;BME280;18038;50.166;18.908;2023-03-21T05:02:27;97922.94;;;5.44;86.60
21401;BME280;18038;50.166;18.908;2023-03-21T05:05:35;97930.78;;;5.54;86.17
21401;BME280;18038;50.166;18.908;2023-03-21T05:08:44;97926.63;;;5.60;85.51
21401;BME280;18038;50.166;18.908;2023-03-21T05:11:52;97928.13;;;5.62;85.45
21401;BME280;18038;50.166;18.908;2023-03-21T05:14:58;97916.66;;;5.54;85.05
21401;BME280;18038;50.166;18.908;2023-03-21T05:18:05;97913.66;;;5.32;85.55
21401;BME280;18038;50.166;18.908;2023-03-21T05:21:33;97916.28;;;5.24;86.75
21401;BME280;18038;50.166;18.908;2023-03-21T05:24:54;97913.16;;;5.20;86.82
21401;BME280;18038;50.166;18.908;2023-03-21T05:28:20;97922.75;;;5.21;86.46
21401;BME280;18038;50.166;18.908;2023-03-21T05:31:37;97928.72;;;5.23;86.09
21401;BME280;18038;50.166;18.908;2023-03-21T05:34:48;97934.16;;;5.22;85.83
21401;BME280;18038;50.166;18.908;2023-03-21T05:37:57;97933.00;;;5.24;85.93
21401;BME280;18038;50.166;18.908;2023-03-21T05:41:11;97933.19;;;5.31;85.90
21401;BME280;18038;50.166;18.908;2023-03-21T05:44:21;97932.19;;;5.32;85.73
21401;BME280;18038;50.166;18.908;2023-03-21T05:47:28;97936.53;;;5.41;85.48
21401;BME280;18038;50.166;18.908;2023-03-21T05:50:37;97938.50;;;5.47;85.02
21401;BME280;18038;50.166;18.908;2023-03-21T05:53:49;97930.44;;;5.49;84.69
21401;BME280;18038;50.166;18.908;2023-03-21T05:56:59;97923.31;;;5.50;84.80
21401;BME280;18038;50.166;18.908;2023-03-21T06:00:26;97930.44;;;5.65;84.65
21401;BME280;18038;50.166;18.908;2023-03-21T06:03:53;97932.06;;;5.83;83.81
21401;BME280;18038;50.166;18.908;2023-03-21T06:07:02;97932.75;;;5.77;83.63
21401;BME280;18038;50.166;18.908;2023-03-21T06:10:10;97929.75;;;5.80;83.61
21401;BME280;18038;50.166;18.908;2023-03-21T06:13:23;97935.88;;;5.88;83.74
21401;BME280;18038;50.166;18.908;2023-03-21T06:16:30;97932.59;;;5.86;83.84
21401;BME280;18038;50.166;18.908;2023-03-21T06:19:36;97938.53;;;5.88;83.67
21401;BME280;18038;50.166;18.908;2023-03-21T06:22:49;97935.72;;;5.90;83.29
21401;BME280;18038;50.166;18.908;2023-03-21T06:25:56;97945.34;;;5.99;82.66
21401;BME280;18038;50.166;18.908;2023-03-21T06:29:17;97946.31;;;5.98;82.93
21401;BME280;18038;50.166;18.908;2023-03-21T06:32:25;97944.47;;;6.07;82.13
21401;BME280;18038;50.166;18.908;2023-03-21T06:35:40;97937.69;;;6.12;82.37
21401;BME280;18038;50.166;18.908;2023-03-21T06:38:46;97941.94;;;6.30;81.68
21401;BME280;18038;50.166;18.908;2023-03-21T06:41:53;97946.56;;;6.36;81.41
21401;BME280;18038;50.166;18.908;2023-03-21T06:45:04;97952.50;;;6.46;80.72
21401;BME280;18038;50.166;18.908;2023-03-21T06:48:18;97949.53;;;6.49;80.26
21401;BME280;18038;50.166;18.908;2023-03-21T06:51:27;97957.97;;;6.53;80.56
21401;BME280;18038;50.166;18.908;2023-03-21T06:54:47;97956.28;;;6.68;79.74
21401;BME280;18038;50.166;18.908;2023-03-21T06:57:56;97956.41;;;6.75;79.61
21401;BME280;18038;50.166;18.908;2023-03-21T07:01:06;97959.88;;;6.75;79.64
21401;BME280;18038;50.166;18.908;2023-03-21T07:04:24;97963.66;;;6.81;79.18
21401;BME280;18038;50.166;18.908;2023-03-21T07:07:33;97963.47;;;6.91;79.44
21401;BME280;18038;50.166;18.908;2023-03-21T07:10:39;97970.22;;;7.01;78.63
21401;BME280;18038;50.166;18.908;2023-03-21T07:13:49;97978.53;;;6.98;78.65
21401;BME280;18038;50.166;18.908;2023-03-21T07:16:58;97983.28;;;7.11;78.46
21401;BME280;18038;50.166;18.908;2023-03-21T07:20:32;97984.72;;;7.22;78.39
21401;BME280;18038;50.166;18.908;2023-03-21T07:23:39;97988.00;;;7.32;78.24
21401;BME280;18038;50.166;18.908;2023-03-21T07:26:46;97996.69;;;7.26;78.94
21401;BME280;18038;50.166;18.908;2023-03-21T07:29:52;97993.44;;;7.08;78.79
21401;BME280;18038;50.166;18.908;2023-03-21T07:33:01;97988.16;;;6.99;78.53
21401;BME280;18038;50.166;18.908;2023-03-21T07:36:11;97992.13;;;7.04;79.13
21401;BME280;18038;50.166;18.908;2023-03-21T07:39:20;97993.13;;;7.03;78.84
21401;BME280;18038;50.166;18.908;2023-03-21T07:42:30;97990.59;;;7.09;78.76
21401;BME280;18038;50.166;18.908;2023-03-21T07:45:37;97992.63;;;6.99;78.75
21401;BME280;18038;50.166;18.908;2023-03-21T07:48:46;97995.09;;;7.09;79.00
21401;BME280;18038;50.166;18.908;2023-03-21T07:51:53;97994.63;;;6.97;78.33
21401;BME280;18038;50.166;18.908;2023-03-21T07:54:59;97990.81;;;6.99;78.32
21401;BME280;18038;50.166;18.908;2023-03-21T07:58:06;97995.41;;;7.14;79.06
21401;BME280;18038;50.166;18.908;2023-03-21T08:01:12;97994.53;;;7.21;79.05
21401;BME280;18038;50.166;18.908;2023-03-21T08:04:23;97994.59;;;7.36;78.24
21401;BME280;18038;50.166;18.908;2023-03-21T08:07:30;98000.09;;;7.43;77.57
21401;BME280;18038;50.166;18.908;2023-03-21T08:10:37;98003.56;;;7.43;77.07
21401;BME280;18038;50.166;18.908;2023-03-21T08:13:43;98007.34;;;7.49;77.09
21401;BME280;18038;50.166;18.908;2023-03-21T08:16:50;97999.63;;;7.39;77.28
21401;BME280;18038;50.166;18.908;2023-03-21T08:19:59;98009.34;;;7.47;77.05
21401;BME280;18038;50.166;18.908;2023-03-21T08:23:07;98005.34;;;7.51;76.67
21401;BME280;18038;50.166;18.908;2023-03-21T08:26:12;98008.84;;;7.52;76.86
21401;BME280;18038;50.166;18.908;2023-03-21T08:29:20;98019.31;;;7.53;76.98
21401;BME280;18038;50.166;18.908;2023-03-21T08:32:27;98003.41;;;7.45;77.43
21401;BME280;18038;50.166;18.908;2023-03-21T08:35:38;98010.16;;;7.56;77.64
21401;BME280;18038;50.166;18.908;2023-03-21T08:38:44;98020.00;;;7.70;76.25
21401;BME280;18038;50.166;18.908;2023-03-21T08:41:51;98015.94;;;7.82;75.97
21401;BME280;18038;50.166;18.908;2023-03-21T08:44:57;98009.31;;;8.01;75.83
21401;BME280;18038;50.166;18.908;2023-03-21T08:48:04;98014.28;;;8.04;74.48
21401;BME280;18038;50.166;18.908;2023-03-21T08:51:13;98012.06;;;8.08;74.36
21401;BME280;18038;50.166;18.908;2023-03-21T08:54:22;98016.50;;;8.16;73.72
21401;BME280;18038;50.166;18.908;2023-03-21T08:57:28;98020.94;;;8.23;73.89
21401;BME280;18038;50.166;18.908;2023-03-21T09:00:35;98018.19;;;8.31;72.46
21401;BME280;18038;50.166;18.908;2023-03-21T09:03:51;98021.22;;;8.28;72.74
21401;BME280;18038;50.166;18.908;2023-03-21T09:07:00;98022.63;;;8.39;72.89
21401;BME280;18038;50.166;18.908;2023-03-21T09:10:10;98029.53;;;8.48;71.04
21401;BME280;18038;50.166;18.908;2023-03-21T09:13:24;98024.41;;;8.62;71.39
21401;BME280;18038;50.166;18.908;2023-03-21T09:16:30;98033.47;;;8.52;70.07
21401;BME280;18038;50.166;18.908;2023-03-21T09:19:37;98027.69;;;8.49;70.33
21401;BME280;18038;50.166;18.908;2023-03-21T09:22:48;98026.31;;;8.68;70.15
21401;BME280;18038;50.166;18.908;2023-03-21T09:25:56;98035.06;;;8.62;69.47
21401;BME280;18038;50.166;18.908;2023-03-21T09:29:02;98027.16;;;8.16;69.63
21401;BME280;18038;50.166;18.908;2023-03-21T09:32:10;98042.44;;;8.37;70.79
21401;BME280;18038;50.166;18.908;2023-03-21T09:35:17;98040.41;;;8.39;70.09
21401;BME280;18038;50.166;18.908;2023-03-21T09:38:42;98049.84;;;8.26;70.68
21401;BME280;18038;50.166;18.908;2023-03-21T09:42:06;98039.03;;;8.05;70.90
21401;BME280;18038;50.166;18.908;2023-03-21T09:45:33;98046.94;;;8.13;70.50
21401;BME280;18038;50.166;18.908;2023-03-21T09:48:51;98047.69;;;8.07;71.08
21401;BME280;18038;50.166;18.908;2023-03-21T09:52:11;98048.25;;;7.94;70.70
21401;BME280;18038;50.166;18.908;2023-03-21T09:55:28;98047.44;;;7.94;69.96
21401;BME280;18038;50.166;18.908;2023-03-21T09:58:44;98043.75;;;7.95;69.72
21401;BME280;18038;50.166;18.908;2023-03-21T10:01:56;98047.03;;;7.82;68.98
21401;BME280;18038;50.166;18.908;2023-03-21T10:05:16;98044.31;;;7.90;69.15
21401;BME280;18038;50.166;18.908;2023-03-21T10:08:29;98041.25;;;8.01;68.45
21401;BME280;18038;50.166;18.908;2023-03-21T10:11:45;98050.28;;;8.15;68.65
21401;BME280;18038;50.166;18.908;2023-03-21T10:14:57;98043.44;;;8.36;68.44
21401;BME280;18038;50.166;18.908;2023-03-21T10:18:12;98044.59;;;8.56;68.19
21401;BME280;18038;50.166;18.908;2023-03-21T10:21:27;98044.59;;;8.56;67.49
21401;BME280;18038;50.166;18.908;2023-03-21T10:24:54;98038.00;;;8.67;67.21
21401;BME280;18038;50.166;18.908;2023-03-21T10:28:06;98047.88;;;8.58;67.46
21401;BME280;18038;50.166;18.908;2023-03-21T10:31:22;98045.41;;;8.57;66.73
21401;BME280;18038;50.166;18.908;2023-03-21T10:34:36;98041.03;;;8.64;66.45
21401;BME280;18038;50.166;18.908;2023-03-21T10:37:48;98045.22;;;8.58;67.40
21401;BME280;18038;50.166;18.908;2023-03-21T10:40:54;98035.63;;;8.34;68.49
21401;BME280;18038;50.166;18.908;2023-03-21T10:44:09;98049.28;;;8.54;68.86
21401;BME280;18038;50.166;18.908;2023-03-21T10:47:19;98044.47;;;8.49;69.36
21401;BME280;18038;50.166;18.908;2023-03-21T10:50:29;98048.63;;;8.52;67.99
21401;BME280;18038;50.166;18.908;2023-03-21T10:53:38;98044.03;;;8.61;68.17
21401;BME280;18038;50.166;18.908;2023-03-21T10:57:07;98046.69;;;8.61;68.03
21401;BME280;18038;50.166;18.908;2023-03-21T11:00:24;98045.59;;;8.55;67.89
21401;BME280;18038;50.166;18.908;2023-03-21T11:03:37;98035.88;;;8.62;67.81
21401;BME280;18038;50.166;18.908;2023-03-21T11:06:52;98048.53;;;8.45;68.58
21401;BME280;18038;50.166;18.908;2023-03-21T11:10:03;98048.19;;;8.25;69.41
21401;BME280;18038;50.166;18.908;2023-03-21T11:13:33;98039.53;;;8.46;67.88
21401;BME280;18038;50.166;18.908;2023-03-21T11:16:46;98041.22;;;8.77;67.33
21401;BME280;18038;50.166;18.908;2023-03-21T11:19:55;98036.09;;;9.05;66.19
21401;BME280;18038;50.166;18.908;2023-03-21T11:23:12;98039.47;;;9.29;64.43
21401;BME280;18038;50.166;18.908;2023-03-21T11:26:26;98034.19;;;9.50;64.24
21401;BME280;18038;50.166;18.908;2023-03-21T11:29:45;98033.34;;;10.07;61.87
21401;BME280;18038;50.166;18.908;2023-03-21T11:32:57;98034.28;;;10.21;60.48
21401;BME280;18038;50.166;18.908;2023-03-21T11:36:31;98026.09;;;10.23;60.51
21401;BME280;18038;50.166;18.908;2023-03-21T11:39:43;98030.44;;;10.02;60.58
21401;BME280;18038;50.166;18.908;2023-03-21T11:42:53;98023.19;;;10.18;60.62
21401;BME280;18038;50.166;18.908;2023-03-21T11:46:05;98015.19;;;9.96;60.48
21401;BME280;18038;50.166;18.908;2023-03-21T11:49:16;98024.28;;;9.80;61.01
21401;BME280;18038;50.166;18.908;2023-03-21T11:52:29;98027.38;;;9.84;60.88
21401;BME280;18038;50.166;18.908;2023-03-21T11:55:58;98034.53;;;9.62;60.03
21401;BME280;18038;50.166;18.908;2023-03-21T11:59:28;98022.66;;;9.28;61.34
21401;BME280;18038;50.166;18.908;2023-03-21T12:03:16;98021.84;;;9.28;62.00
21401;BME280;18038;50.166;18.908;2023-03-21T12:06:57;98020.75;;;9.07;61.83
21401;BME280;18038;50.166;18.908;2023-03-21T12:10:26;98006.91;;;8.97;62.20
21401;BME280;18038;50.166;18.908;2023-03-21T12:13:51;98012.38;;;8.95;62.22
21401;BME280;18038;50.166;18.908;2023-03-21T12:17:20;98008.88;;;8.95;62.44
21401;BME280;18038;50.166;18.908;2023-03-21T12:20:39;98018.25;;;8.61;63.52
21401;BME280;18038;50.166;18.908;2023-03-21T12:24:05;98013.47;;;8.71;64.20
21401;BME280;18038;50.166;18.908;2023-03-21T12:27:29;98011.38;;;8.82;62.68
21401;BME280;18038;50.166;18.908;2023-03-21T12:30:54;98006.66;;;8.69;63.11
21401;BME280;18038;50.166;18.908;2023-03-21T12:34:30;98002.63;;;8.58;64.06
21401;BME280;18038;50.166;18.908;2023-03-21T12:37:59;97995.38;;;8.52;64.50
21401;BME280;18038;50.166;18.908;2023-03-21T12:41:24;97993.84;;;8.72;64.42
21401;BME280;18038;50.166;18.908;2023-03-21T12:44:38;97991.53;;;8.69;65.11
21401;BME280;18038;50.166;18.908;2023-03-21T12:47:51;97988.97;;;8.76;65.08
21401;BME280;18038;50.166;18.908;2023-03-21T12:51:07;97987.03;;;8.70;65.65
21401;BME280;18038;50.166;18.908;2023-03-21T12:54:26;97976.50;;;8.62;65.28
21401;BME280;18038;50.166;18.908;2023-03-21T12:57:45;97987.47;;;8.44;65.43
21401;BME280;18038;50.166;18.908;2023-03-21T13:01:02;97982.41;;;8.34;65.72
21401;BME280;18038;50.166;18.908;2023-03-21T13:04:41;97977.47;;;8.31;65.96
21401;BME280;18038;50.166;18.908;2023-03-21T13:07:58;97976.84;;;8.44;65.43
21401;BME280;18038;50.166;18.908;2023-03-21T13:11:15;97967.03;;;8.59;65.15
21401;BME280;18038;50.166;18.908;2023-03-21T13:14:35;97971.81;;;8.64;64.67
21401;BME280;18038;50.166;18.908;2023-03-21T13:17:55;97970.88;;;8.71;64.79
21401;BME280;18038;50.166;18.908;2023-03-21T13:21:14;97971.69;;;8.57;66.04
21401;BME280;18038;50.166;18.908;2023-03-21T13:24:28;97970.03;;;8.71;65.42
21401;BME280;18038;50.166;18.908;2023-03-21T13:27:46;97971.88;;;8.55;64.87
21401;BME280;18038;50.166;18.908;2023-03-21T13:31:25;97965.19;;;8.74;65.31
21401;BME280;18038;50.166;18.908;2023-03-21T13:34:57;97976.28;;;8.93;64.70
21401;BME280;18038;50.166;18.908;2023-03-21T13:38:14;97960.97;;;8.80;64.45
21401;BME280;18038;50.166;18.908;2023-03-21T13:41:29;97963.53;;;8.73;64.89
21401;BME280;18038;50.166;18.908;2023-03-21T13:44:42;97962.72;;;8.88;64.30
21401;BME280;18038;50.166;18.908;2023-03-21T13:47:57;97963.53;;;8.88;64.01
21401;BME280;18038;50.166;18.908;2023-03-21T13:51:07;97968.22;;;9.01;62.96
21401;BME280;18038;50.166;18.908;2023-03-21T13:54:21;97965.47;;;9.09;62.42
21401;BME280;18038;50.166;18.908;2023-03-21T13:57:37;97953.00;;;9.31;61.81
21401;BME280;18038;50.166;18.908;2023-03-21T14:01:12;97951.25;;;9.24;62.30
21401;BME280;18038;50.166;18.908;2023-03-21T14:04:31;97954.75;;;9.24;61.73
21401;BME280;18038;50.166;18.908;2023-03-21T14:07:59;97948.97;;;9.20;61.90
21401;BME280;18038;50.166;18.908;2023-03-21T14:11:21;97949.00;;;8.91;62.10
21401;BME280;18038;50.166;18.908;2023-03-21T14:14:34;97950.94;;;8.97;62.27
21401;BME280;18038;50.166;18.908;2023-03-21T14:17:52;97942.13;;;9.11;62.03
21401;BME280;18038;50.166;18.908;2023-03-21T14:21:03;97944.56;;;9.28;60.93
21401;BME280;18038;50.166;18.908;2023-03-21T14:24:16;97939.41;;;9.26;61.54
21401;BME280;18038;50.166;18.908;2023-03-21T14:27:28;97934.63;;;9.22;61.53
21401;BME280;18038;50.166;18.908;2023-03-21T14:30:39;97939.63;;;9.25;61.28
21401;BME280;18038;50.166;18.908;2023-03-21T14:33:50;97936.63;;;9.34;60.77
21401;BME280;18038;50.166;18.908;2023-03-21T14:37:01;97937.00;;;9.31;60.72
21401;BME280;18038;50.166;18.908;2023-03-21T14:40:28;97933.44;;;9.46;61.20
21401;BME280;18038;50.166;18.908;2023-03-21T14:43:35;97939.81;;;9.66;60.66
21401;BME280;18038;50.166;18.908;2023-03-21T14:46:41;97932.19;;;9.63;60.58
21401;BME280;18038;50.166;18.908;2023-03-21T14:49:50;97934.56;;;9.73;60.32
21401;BME280;18038;50.166;18.908;2023-03-21T14:52:59;97936.72;;;9.62;60.75
21401;BME280;18038;50.166;18.908;2023-03-21T14:56:11;97932.19;;;9.63;59.87
21401;BME280;18038;50.166;18.908;2023-03-21T14:59:31;97930.59;;;9.47;61.21
21401;BME280;18038;50.166;18.908;2023-03-21T15:02:53;97933.22;;;9.62;60.32
21401;BME280;18038;50.166;18.908;2023-03-21T15:06:12;97933.41;;;9.39;61.05
21401;BME280;18038;50.166;18.908;2023-03-21T15:09:25;97922.84;;;9.31;61.03
21401;BME280;18038;50.166;18.908;2023-03-21T15:12:49;97933.22;;;9.40;60.81
21401;BME280;18038;50.166;18.908;2023-03-21T15:15:57;97933.41;;;9.39;61.43
21401;BME280;18038;50.166;18.908;2023-03-21T15:19:06;97930.59;;;9.26;61.46
21401;BME280;18038;50.166;18.908;2023-03-21T15:22:30;97925.22;;;9.04;62.13
21401;BME280;18038;50.166;18.908;2023-03-21T15:25:44;97933.13;;;8.83;63.40
21401;BME280;18038;50.166;18.908;2023-03-21T15:28:56;97931.94;;;8.70;63.72
21401;BME280;18038;50.166;18.908;2023-03-21T15:32:06;97922.31;;;8.69;63.20
21401;BME280;18038;50.166;18.908;2023-03-21T15:35:24;97917.34;;;8.66;64.04
21401;BME280;18038;50.166;18.908;2023-03-21T15:38:36;97919.22;;;8.51;64.22
21401;BME280;18038;50.166;18.908;2023-03-21T15:42:05;97908.00;;;8.41;65.04
21401;BME280;18038;50.166;18.908;2023-03-21T15:45:27;97911.22;;;8.36;64.80
21401;BME280;18038;50.166;18.908;2023-03-21T15:48:34;97911.47;;;8.26;65.32
21401;BME280;18038;50.166;18.908;2023-03-21T15:51:43;97911.41;;;8.35;65.47
21401;BME280;18038;50.166;18.908;2023-03-21T15:54:52;97902.31;;;8.44;65.29
21401;BME280;18038;50.166;18.908;2023-03-21T15:58:07;97900.69;;;8.43;65.48
21401;BME280;18038;50.166;18.908;2023-03-21T16:01:21;97900.94;;;8.48;65.12
21401;BME280;18038;50.166;18.908;2023-03-21T16:04:28;97907.63;;;8.44;65.87
21401;BME280;18038;50.166;18.908;2023-03-21T16:07:44;97906.00;;;8.43;65.69
21401;BME280;18038;50.166;18.908;2023-03-21T16:10:50;97909.66;;;8.42;65.86
21401;BME280;18038;50.166;18.908;2023-03-21T16:14:00;97907.00;;;8.42;65.79
21401;BME280;18038;50.166;18.908;2023-03-21T16:17:30;97913.72;;;8.38;66.23
21401;BME280;18038;50.166;18.908;2023-03-21T16:20:46;97910.56;;;8.34;65.89
21401;BME280;18038;50.166;18.908;2023-03-21T16:23:56;97906.44;;;8.17;65.93
21401;BME280;18038;50.166;18.908;2023-03-21T16:27:05;97911.13;;;8.15;66.46
21401;BME280;18038;50.166;18.908;2023-03-21T16:30:15;97902.97;;;8.16;65.79
21401;BME280;18038;50.166;18.908;2023-03-21T16:33:24;97905.41;;;8.18;65.92
21401;BME280;18038;50.166;18.908;2023-03-21T16:36:32;97906.53;;;8.23;66.38
21401;BME280;18038;50.166;18.908;2023-03-21T16:39:40;97909.19;;;8.23;65.83
21401;BME280;18038;50.166;18.908;2023-03-21T16:42:51;97915.91;;;8.19;65.17
21401;BME280;18038;50.166;18.908;2023-03-21T16:46:01;97916.78;;;8.26;65.13
21401;BME280;18038;50.166;18.908;2023-03-21T16:49:18;97923.50;;;8.22;66.01
21401;BME280;18038;50.166;18.908;2023-03-21T16:52:28;97922.00;;;8.05;67.06
21401;BME280;18038;50.166;18.908;2023-03-21T16:55:36;97921.50;;;7.86;68.35
21401;BME280;18038;50.166;18.908;2023-03-21T16:58:43;97918.47;;;7.75;69.02
21401;BME280;18038;50.166;18.908;2023-03-21T17:01:52;97924.69;;;7.67;69.28
21401;BME280;18038;50.166;18.908;2023-03-21T17:04:59;97923.38;;;7.63;69.41
21401;BME280;18038;50.166;18.908;2023-03-21T17:08:15;97926.88;;;7.63;69.02
21401;BME280;18038;50.166;18.908;2023-03-21T17:11:25;97928.81;;;7.47;69.99
21401;BME280;18038;50.166;18.908;2023-03-21T17:14:37;97931.84;;;7.35;71.70
21401;BME280;18038;50.166;18.908;2023-03-21T17:17:47;97937.59;;;7.47;71.91
21401;BME280;18038;50.166;18.908;2023-03-21T17:20:57;97937.03;;;7.29;72.77